sensor_id;sensor_type;location;lat;lon;timestamp;pressure;altitude;pressure_sealevel;temperature;humidity
35758;BME280;21879;50.110;18.900;2023-02-23T00:07:20;98725.63;;;4.23;59.56
35758;BME280;21879;50.110;18.900;2023-02-23T00:17:45;98726.27;;;4.10;59.90
35758;BME280;21879;50.110;18.900;2023-02-23T00:28:10;98725.02;;;3.87;60.33
35758;BME280;21879;50.110;18.900;2023-02-23T00:38:35;98727.52;;;3.73;60.92
35758;BME280;21879;50.110;18.900;2023-02-23T00:49:00;98724.86;;;3.58;61.21
35758;BME280;21879;50.110;18.900;2023-02-23T00:59:27;98724.96;;;3.45;61.43
35758;BME280;21879;50.110;18.900;2023-02-23T01:09:53;98722.16;;;3.34;61.59
35758;BME280;21879;50.110;18.900;2023-02-23T01:20:18;98721.64;;;3.34;61.99
35758;BME280;21879;50.110;18.900;2023-02-23T01:30:42;98711.72;;;3.10;62.06
35758;BME280;21879;50.110;18.900;2023-02-23T01:41:08;98702.08;;;3.01;62.24
35758;BME280;21879;50.110;18.900;2023-02-23T01:51:36;98696.88;;;3.06;62.38
35758;BME280;21879;50.110;18.900;2023-02-23T02:02:02;98683.73;;;3.20;62.46
35758;BME280;21879;50.110;18.900;2023-02-23T02:12:28;98677.45;;;3.15;62.30
35758;BME280;21879;50.110;18.900;2023-02-23T02:23:13;98665.33;;;3.19;62.47
35758;BME280;21879;50.110;18.900;2023-02-23T02:34:12;98662.98;;;3.13;62.04
35758;BME280;21879;50.110;18.900;2023-02-23T02:44:51;98656.33;;;3.24;62.57
35758;BME280;21879;50.110;18.900;2023-02-23T02:55:22;98662.68;;;3.33;61.96
35758;BME280;21879;50.110;18.900;2023-02-23T03:05:49;98661.86;;;3.26;62.00
35758;BME280;21879;50.110;18.900;2023-02-23T03:16:49;98653.03;;;3.14;61.72
35758;BME280;21879;50.110;18.900;2023-02-23T03:27:44;98649.91;;;2.86;62.03
35758;BME280;21879;50.110;18.900;2023-02-23T03:38:33;98651.98;;;2.78;62.36
35758;BME280;21879;50.110;18.900;2023-02-23T03:49:18;98649.54;;;2.76;62.40
35758;BME280;21879;50.110;18.900;2023-02-23T04:00:04;98653.11;;;2.74;62.23
35758;BME280;21879;50.110;18.900;2023-02-23T04:10:52;98653.38;;;2.63;62.73
35758;BME280;21879;50.110;18.900;2023-02-23T04:21:36;98652.42;;;2.66;62.98
35758;BME280;21879;50.110;18.900;2023-02-23T04:32:01;98646.25;;;2.67;62.99
35758;BME280;21879;50.110;18.900;2023-02-23T04:42:26;98644.43;;;2.70;63.13
35758;BME280;21879;50.110;18.900;2023-02-23T04:52:51;98638.05;;;2.76;63.12
35758;BME280;21879;50.110;18.900;2023-02-23T05:03:16;98640.58;;;2.74;63.03
35758;BME280;21879;50.110;18.900;2023-02-23T05:13:41;98640.34;;;2.79;63.17
35758;BME280;21879;50.110;18.900;2023-02-23T05:24:07;98635.02;;;2.72;63.29
35758;BME280;21879;50.110;18.900;2023-02-23T05:34:32;98637.65;;;2.66;62.96
35758;BME280;21879;50.110;18.900;2023-02-23T05:44:56;98640.91;;;2.74;63.50
35758;BME280;21879;50.110;18.900;2023-02-23T05:55:21;98646.77;;;2.83;63.10
35758;BME280;21879;50.110;18.900;2023-02-23T06:05:50;98654.36;;;2.85;63.02
35758;BME280;21879;50.110;18.900;2023-02-23T06:16:14;98650.73;;;2.84;62.84
35758;BME280;21879;50.110;18.900;2023-02-23T06:26:39;98656.34;;;2.81;62.80
35758;BME280;21879;50.110;18.900;2023-02-23T06:37:07;98662.70;;;2.74;63.03
35758;BME280;21879;50.110;18.900;2023-02-23T06:47:32;98665.83;;;2.75;62.93
35758;BME280;21879;50.110;18.900;2023-02-23T06:57:56;98668.72;;;2.91;63.35
35758;BME280;21879;50.110;18.900;2023-02-23T07:08:21;98673.25;;;3.11;63.19
35758;BME280;21879;50.110;18.900;2023-02-23T07:18:46;98669.15;;;3.30;63.28
35758;BME280;21879;50.110;18.900;2023-02-23T07:29:11;98671.33;;;3.27;62.86
35758;BME280;21879;50.110;18.900;2023-02-23T07:39:35;98662.39;;;3.18;62.91
35758;BME280;21879;50.110;18.900;2023-02-23T07:50:00;98657.77;;;3.20;63.20
35758;BME280;21879;50.110;18.900;2023-02-23T08:00:26;98659.43;;;3.44;63.48
35758;BME280;21879;50.110;18.900;2023-02-23T08:10:59;98654.08;;;3.72;63.75
35758;BME280;21879;50.110;18.900;2023-02-23T08:21:23;98659.69;;;3.78;63.13
35758;BME280;21879;50.110;18.900;2023-02-23T08:31:48;98653.39;;;3.82;63.02
35758;BME280;21879;50.110;18.900;2023-02-23T08:42:14;98645.11;;;3.81;63.01
35758;BME280;21879;50.110;18.900;2023-02-23T08:52:41;98639.77;;;3.80;63.16
35758;BME280;21879;50.110;18.900;2023-02-23T09:03:06;98645.30;;;3.92;63.21
35758;BME280;21879;50.110;18.900;2023-02-23T09:13:31;98643.48;;;3.98;63.31
35758;BME280;21879;50.110;18.900;2023-02-23T09:23:56;98640.23;;;4.20;63.54
35758;BME280;21879;50.110;18.900;2023-02-23T09:34:21;98640.97;;;4.49;63.43
35758;BME280;21879;50.110;18.900;2023-02-23T09:44:58;98637.77;;;4.67;63.14
35758;BME280;21879;50.110;18.900;2023-02-23T09:55:26;98633.91;;;4.89;63.11
35758;BME280;21879;50.110;18.900;2023-02-23T10:05:53;98629.25;;;5.18;62.87
35758;BME280;21879;50.110;18.900;2023-02-23T10:16:23;98630.26;;;5.49;62.59
35758;BME280;21879;50.110;18.900;2023-02-23T10:26:54;98619.75;;;5.71;62.23
35758;BME280;21879;50.110;18.900;2023-02-23T10:37:20;98614.91;;;5.89;61.98
35758;BME280;21879;50.110;18.900;2023-02-23T10:47:46;98606.92;;;6.03;61.91
35758;BME280;21879;50.110;18.900;2023-02-23T10:58:14;98596.67;;;6.18;61.75
35758;BME280;21879;50.110;18.900;2023-02-23T11:08:40;98579.00;;;6.37;61.61
35758;BME280;21879;50.110;18.900;2023-02-23T11:19:06;98564.56;;;6.52;61.18
35758;BME280;21879;50.110;18.900;2023-02-23T11:29:42;98558.08;;;6.73;61.28
35758;BME280;21879;50.110;18.900;2023-02-23T11:40:20;98546.35;;;6.81;60.76
35758;BME280;21879;50.110;18.900;2023-02-23T11:50:48;98537.41;;;7.01;61.13
35758;BME280;21879;50.110;18.900;2023-02-23T12:01:15;98532.08;;;7.16;61.23
35758;BME280;21879;50.110;18.900;2023-02-23T12:11:44;98524.50;;;7.32;60.75
35758;BME280;21879;50.110;18.900;2023-02-23T12:22:14;98515.67;;;7.47;60.92
35758;BME280;21879;50.110;18.900;2023-02-23T12:32:46;98507.18;;;7.69;60.68
35758;BME280;21879;50.110;18.900;2023-02-23T12:43:18;98491.06;;;7.85;60.15
35758;BME280;21879;50.110;18.900;2023-02-23T12:53:45;98468.84;;;8.06;60.31
35758;BME280;21879;50.110;18.900;2023-02-23T13:04:21;98451.27;;;8.30;60.30
35758;BME280;21879;50.110;18.900;2023-02-23T13:14:54;98438.91;;;8.45;60.38
35758;BME280;21879;50.110;18.900;2023-02-23T13:25:28;98430.52;;;8.60;60.75
35758;BME280;21879;50.110;18.900;2023-02-23T13:36:00;98424.77;;;8.91;60.49
35758;BME280;21879;50.110;18.900;2023-02-23T13:46:29;98420.60;;;8.94;59.83
35758;BME280;21879;50.110;18.900;2023-02-23T13:57:03;98408.59;;;8.99;59.38
35758;BME280;21879;50.110;18.900;2023-02-23T14:07:40;98396.94;;;9.03;59.13
35758;BME280;21879;50.110;18.900;2023-02-23T14:18:32;98390.48;;;9.07;59.20
35758;BME280;21879;50.110;18.900;2023-02-23T14:29:20;98381.36;;;9.18;59.11
35758;BME280;21879;50.110;18.900;2023-02-23T14:39:45;98370.77;;;9.20;59.22
35758;BME280;21879;50.110;18.900;2023-02-23T14:50:23;98373.79;;;9.31;59.33
35758;BME280;21879;50.110;18.900;2023-02-23T15:00:49;98367.34;;;9.33;59.14
35758;BME280;21879;50.110;18.900;2023-02-23T15:11:14;98359.61;;;9.42;59.22
35758;BME280;21879;50.110;18.900;2023-02-23T15:21:39;98346.21;;;9.46;58.94
35758;BME280;21879;50.110;18.900;2023-02-23T15:32:16;98333.84;;;9.50;58.90
35758;BME280;21879;50.110;18.900;2023-02-23T15:42:44;98326.80;;;9.45;58.74
35758;BME280;21879;50.110;18.900;2023-02-23T15:53:19;98321.41;;;9.45;58.99
35758;BME280;21879;50.110;18.900;2023-02-23T16:03:57;98315.73;;;9.57;58.89
35758;BME280;21879;50.110;18.900;2023-02-23T16:14:24;98316.33;;;9.65;58.72
35758;BME280;21879;50.110;18.900;2023-02-23T16:24:57;98317.96;;;9.59;58.47
35758;BME280;21879;50.110;18.900;2023-02-23T16:35:23;98314.14;;;9.44;58.44
35758;BME280;21879;50.110;18.900;2023-02-23T16:45:47;98315.19;;;9.43;58.57
35758;BME280;21879;50.110;18.900;2023-02-23T16:56:13;98318.61;;;9.32;58.62
35758;BME280;21879;50.110;18.900;2023-02-23T17:06:38;98320.98;;;9.22;58.83
35758;BME280;21879;50.110;18.900;2023-02-23T17:17:04;98321.28;;;9.07;58.98
35758;BME280;21879;50.110;18.900;2023-02-23T17:27:28;98326.45;;;8.92;59.04
35758;BME280;21879;50.110;18.900;2023-02-23T17:37:53;98319.39;;;8.87;59.43
35758;BME280;21879;50.110;18.900;2023-02-23T17:48:18;98315.29;;;8.81;59.85
35758;BME280;21879;50.110;18.900;2023-02-23T17:58:42;98313.50;;;8.66;60.21
35758;BME280;21879;50.110;18.900;2023-02-23T18:09:08;98313.59;;;8.53;60.19
35758;BME280;21879;50.110;18.900;2023-02-23T18:19:32;98313.63;;;8.50;60.56
35758;BME280;21879;50.110;18.900;2023-02-23T18:29:58;98302.23;;;8.45;61.02
35758;BME280;21879;50.110;18.900;2023-02-23T18:40:23;98297.74;;;8.41;61.17
35758;BME280;21879;50.110;18.900;2023-02-23T18:50:49;98284.08;;;8.35;61.47
35758;BME280;21879;50.110;18.900;2023-02-23T19:01:19;98273.86;;;8.38;61.76
35758;BME280;21879;50.110;18.900;2023-02-23T19:11:45;98268.96;;;8.15;61.87
35758;BME280;21879;50.110;18.900;2023-02-23T19:22:11;98261.06;;;7.76;61.94
35758;BME280;21879;50.110;18.900;2023-02-23T19:32:37;98255.87;;;7.42;62.50
35758;BME280;21879;50.110;18.900;2023-02-23T19:43:05;98255.59;;;7.23;62.78
35758;BME280;21879;50.110;18.900;2023-02-23T19:53:31;98251.67;;;7.04;64.06
35758;BME280;21879;50.110;18.900;2023-02-23T20:03:56;98247.54;;;6.97;64.94
35758;BME280;21879;50.110;18.900;2023-02-23T20:14:24;98243.05;;;6.99;65.51
35758;BME280;21879;50.110;18.900;2023-02-23T20:24:49;98239.23;;;7.04;66.04
35758;BME280;21879;50.110;18.900;2023-02-23T20:35:15;98223.80;;;7.14;66.44
35758;BME280;21879;50.110;18.900;2023-02-23T20:45:40;98209.73;;;7.31;66.54
35758;BME280;21879;50.110;18.900;2023-02-23T20:56:07;98198.80;;;7.39;66.25
35758;BME280;21879;50.110;18.900;2023-02-23T21:06:32;98193.08;;;7.43;66.30
35758;BME280;21879;50.110;18.900;2023-02-23T21:16:57;98189.26;;;7.46;66.41
35758;BME280;21879;50.110;18.900;2023-02-23T21:27:22;98182.82;;;7.52;66.40
35758;BME280;21879;50.110;18.900;2023-02-23T21:37:49;98180.56;;;7.53;66.55
35758;BME280;21879;50.110;18.900;2023-02-23T21:48:14;98170.87;;;7.55;66.41
35758;BME280;21879;50.110;18.900;2023-02-23T21:58:42;98164.27;;;7.59;66.52
35758;BME280;21879;50.110;18.900;2023-02-23T22:09:08;98156.64;;;7.61;66.42
35758;BME280;21879;50.110;18.900;2023-02-23T22:19:33;98149.86;;;7.66;66.46
35758;BME280;21879;50.110;18.900;2023-02-23T22:29:58;98138.58;;;7.71;66.28
35758;BME280;21879;50.110;18.900;2023-02-23T22:40:25;98125.84;;;7.62;66.46
35758;BME280;21879;50.110;18.900;2023-02-23T22:50:50;98113.45;;;7.52;66.54
35758;BME280;21879;50.110;18.900;2023-02-23T23:01:15;98107.40;;;7.50;66.65
35758;BME280;21879;50.110;18.900;2023-02-23T23:11:40;98103.46;;;7.45;66.67
35758;BME280;21879;50.110;18.900;2023-02-23T23:22:05;98101.10;;;7.37;66.98
35758;BME280;21879;50.110;18.900;2023-02-23T23:32:36;98089.73;;;7.30;67.16
35758;BME280;21879;50.110;18.900;2023-02-23T23:43:02;98073.33;;;7.25;67.38
35758;BME280;21879;50.110;18.900;2023-02-23T23:53:30;98069.16;;;7.29;67.39
